Time;durP1;ratioP1;P1;durP2;ratioP2;P2;SDS_P1;SDS_P2;PMS_P1;PMS_P2;Temp;Humidity;BMP_temperature;BMP_pressure;BME280_temperature;BME280_humidity;BME280_pressure;Samples;Min_cycle;Max_cycle;Signal;HPM_P1;HPM_P2
2023/08/12 00:01:24;;;;;;;1999.90;999.90;;;;;;;22.09;100.00;100252.06;5088463;28;20020;-59
2023/08/12 00:03:50;;;;;;;1999.90;999.90;;;;;;;22.03;100.00;100238.09;5084705;28;20111;-59
2023/08/12 00:06:15;;;;;;;1999.90;999.90;;;;;;;21.98;100.00;100243.00;5068354;28;20126;-59
2023/08/12 00:08:41;;;;;;;1999.90;999.90;;;;;;;21.94;100.00;100239.66;5068136;28;20041;-59
2023/08/12 00:11:06;;;;;;;1999.90;999.90;;;;;;;21.91;100.00;100242.63;5068149;28;20161;-59
2023/08/12 00:13:32;;;;;;;1999.90;999.90;;;;;;;21.91;100.00;100244.47;5070776;28;20039;-59
2023/08/12 00:15:57;;;;;;;1999.90;999.90;;;;;;;21.92;100.00;100243.50;5068286;28;20373;-59
2023/08/12 00:18:23;;;;;;;1999.90;999.90;;;;;;;21.92;100.00;100232.66;5068090;28;20029;-59
2023/08/12 00:20:48;;;;;;;1999.90;999.90;;;;;;;21.94;100.00;100233.41;5086401;28;20036;-59
2023/08/12 00:23:14;;;;;;;1999.90;999.90;;;;;;;21.98;100.00;100232.19;5084783;28;20028;-59
2023/08/12 00:25:39;;;;;;;1999.90;999.90;;;;;;;22.01;100.00;100229.22;5086981;28;20472;-59
2023/08/12 00:28:05;;;;;;;1999.90;999.90;;;;;;;22.05;100.00;100225.31;5081685;28;20028;-59
2023/08/12 00:30:30;;;;;;;1999.90;999.90;;;;;;;22.07;100.00;100226.06;5066977;28;20377;-59
2023/08/12 00:32:56;;;;;;;1999.90;999.90;;;;;;;22.07;100.00;100229.63;5066800;28;20040;-59
2023/08/12 00:35:21;;;;;;;1999.90;999.90;;;;;;;22.07;100.00;100223.38;5082105;28;20032;-59
2023/08/12 00:37:46;;;;;;;1999.90;999.90;;;;;;;22.10;100.00;100229.41;5087253;28;20050;-59
2023/08/12 00:40:13;;;;;;;1999.90;999.90;;;;;;;22.16;100.00;100228.06;5087428;28;20039;-59
2023/08/12 00:42:38;;;;;;;1999.90;999.90;;;;;;;22.11;100.00;100241.97;5086530;28;20030;-59
2023/08/12 00:45:09;;;;;;;1999.90;999.90;;;;;;;22.05;100.00;100236.16;5069900;28;20476;-59
2023/08/12 00:47:35;;;;;;;1999.90;999.90;;;;;;;22.05;100.00;100238.88;5074266;28;20019;-59
2023/08/12 00:50:00;;;;;;;1999.90;999.90;;;;;;;22.05;100.00;100241.56;5074871;28;20405;-59
2023/08/12 00:52:26;;;;;;;1999.90;999.90;;;;;;;22.02;100.00;100244.53;5067892;28;20026;-59
2023/08/12 00:54:52;;;;;;;1999.90;999.90;;;;;;;21.99;100.00;100242.06;5075933;28;20107;-59
2023/08/12 00:57:18;;;;;;;1999.90;999.90;;;;;;;22.01;100.00;100240.06;5088149;28;20072;-59
2023/08/12 00:59:44;;;;;;;1999.90;999.90;;;;;;;22.03;100.00;100241.69;5070743;28;20040;-59
2023/08/12 01:02:11;;;;;;;1999.90;999.90;;;;;;;22.04;100.00;100242.56;5067460;28;20044;-59
2023/08/12 01:04:37;;;;;;;1999.90;999.90;;;;;;;22.03;100.00;100232.69;5067675;28;20032;-59
2023/08/12 01:07:03;;;;;;;1999.90;999.90;;;;;;;22.04;100.00;100239.84;5080965;28;20031;-59
2023/08/12 01:09:29;;;;;;;1999.90;999.90;;;;;;;22.07;100.00;100239.63;5075572;28;20144;-59
2023/08/12 01:12:04;;;;;;;1999.90;999.90;;;;;;;22.08;100.00;100238.63;5088082;28;20103;-59
2023/08/12 01:14:38;;;;;;;1999.90;999.90;;;;;;;22.06;100.00;100235.16;5088121;28;20039;-59
2023/08/12 01:17:08;;;;;;;1999.90;999.90;;;;;;;22.13;100.00;100236.44;5091299;28;20024;-59
2023/08/12 01:19:37;;;;;;;1999.90;999.90;;;;;;;22.14;100.00;100246.31;5083476;28;20043;-59
2023/08/12 01:22:06;;;;;;;1999.90;999.90;;;;;;;22.16;100.00;100241.59;5090666;28;20052;-59
2023/08/12 01:24:43;;;;;;;1999.90;999.90;;;;;;;22.10;100.00;100240.25;5090354;28;20537;-59
2023/08/12 01:27:10;;;;;;;1999.90;999.90;;;;;;;22.18;100.00;100254.06;5087242;28;20016;-59
2023/08/12 01:29:41;;;;;;;1999.90;999.90;;;;;;;22.24;100.00;100252.72;5068843;28;20089;-59
2023/08/12 01:32:18;;;;;;;1999.90;999.90;;;;;;;22.28;100.00;100256.94;5068455;28;20028;-59
2023/08/12 01:34:50;;;;;;;1999.90;999.90;;;;;;;22.28;100.00;100270.50;5071248;28;20028;-59
2023/08/12 01:37:24;;;;;;;1999.90;999.90;;;;;;;22.28;100.00;100277.75;5069602;28;20033;-59
2023/08/12 01:39:52;;;;;;;1999.90;999.90;;;;;;;22.17;100.00;100265.03;5069895;28;20500;-59
2023/08/12 01:42:19;;;;;;;1999.90;999.90;;;;;;;22.15;100.00;100267.00;5069671;28;20032;-59
2023/08/12 01:44:45;;;;;;;1999.90;999.90;;;;;;;22.20;100.00;100272.94;5086611;28;20023;-59
2023/08/12 01:47:11;;;;;;;1999.90;999.90;;;;;;;22.17;100.00;100265.88;5090828;28;20035;-59
2023/08/12 01:49:37;;;;;;;1999.90;999.90;;;;;;;22.26;100.00;100263.47;5090609;28;20019;-59
2023/08/12 01:52:02;;;;;;;1999.90;999.90;;;;;;;22.25;100.00;100259.03;5088388;28;20115;-59
2023/08/12 01:54:33;;;;;;;1999.90;999.90;;;;;;;22.22;100.00;100270.09;5076040;28;20340;-59
2023/08/12 01:57:05;;;;;;;1999.90;999.90;;;;;;;22.21;100.00;100260.25;5090880;28;20031;-59
2023/08/12 01:59:36;;;;;;;1999.90;999.90;;;;;;;22.19;100.00;100250.38;5091060;28;20157;-59
2023/08/12 02:02:02;;;;;;;1999.90;999.90;;;;;;;22.20;100.00;100259.38;5086695;28;20055;-59
2023/08/12 02:04:28;;;;;;;1999.90;999.90;;;;;;;22.21;100.00;100255.69;5090685;28;20121;-59
2023/08/12 02:06:54;;;;;;;1999.90;999.90;;;;;;;22.18;100.00;100256.78;5082454;28;20074;-59
2023/08/12 02:09:22;;;;;;;1999.90;999.90;;;;;;;22.23;100.00;100251.00;5090340;28;20060;-59
2023/08/12 02:11:48;;;;;;;1999.90;999.90;;;;;;;22.23;100.00;100256.44;5090196;28;20038;-59
2023/08/12 02:14:13;;;;;;;1999.90;999.90;;;;;;;22.19;100.00;100249.50;5089912;28;20024;-59
2023/08/12 02:16:39;;;;;;;1999.90;999.90;;;;;;;22.24;100.00;100263.56;5073322;28;20059;-59
2023/08/12 02:19:04;;;;;;;1999.90;999.90;;;;;;;22.26;100.00;100260.78;5069133;28;20044;-59
2023/08/12 02:21:30;;;;;;;1999.90;999.90;;;;;;;22.26;100.00;100248.06;5088257;28;20027;-59
2023/08/12 02:23:55;;;;;;;1999.90;999.90;;;;;;;22.33;100.00;100246.63;5087166;28;20042;-59
2023/08/12 02:26:20;;;;;;;1999.90;999.90;;;;;;;22.35;100.00;100244.66;5085705;28;20016;-59
2023/08/12 02:28:46;;;;;;;1999.90;999.90;;;;;;;22.29;100.00;100247.81;5087496;28;20023;-59
2023/08/12 02:31:11;;;;;;;1999.90;999.90;;;;;;;22.26;100.00;100244.50;5088024;28;20074;-59
2023/08/12 02:33:37;;;;;;;1999.90;999.90;;;;;;;22.24;100.00;100244.59;5084877;28;20057;-59
2023/08/12 02:36:02;;;;;;;1999.90;999.90;;;;;;;22.22;100.00;100243.88;5068785;28;20111;-59
2023/08/12 02:38:28;;;;;;;1999.90;999.90;;;;;;;22.23;100.00;100232.03;5068789;28;20025;-59
2023/08/12 02:40:53;;;;;;;1999.90;999.90;;;;;;;22.18;100.00;100223.41;5087269;28;20020;-59
2023/08/12 02:43:19;;;;;;;1999.90;999.90;;;;;;;22.20;100.00;100229.56;5089676;28;20486;-59
2023/08/12 02:45:45;;;;;;;1999.90;999.90;;;;;;;22.22;100.00;100221.31;5078916;28;20036;-59
2023/08/12 02:48:10;;;;;;;1999.90;999.90;;;;;;;22.21;100.00;100219.59;5069563;28;20103;-59
2023/08/12 02:50:37;;;;;;;1999.90;999.90;;;;;;;22.21;100.00;100220.44;5071985;28;20039;-59
2023/08/12 02:53:02;;;;;;;1999.90;999.90;;;;;;;22.17;100.00;100211.69;5069608;28;20056;-59
2023/08/12 02:55:28;;;;;;;1999.90;999.90;;;;;;;22.18;100.00;100215.28;5082604;28;20074;-59
2023/08/12 02:57:54;;;;;;;1999.90;999.90;;;;;;;22.17;100.00;100213.56;5088297;28;20032;-59
2023/08/12 03:00:19;;;;;;;1999.90;999.90;;;;;;;22.14;100.00;100205.66;5089762;28;20043;-59
2023/08/12 03:02:45;;;;;;;1999.90;999.90;;;;;;;22.12;100.00;100205.75;5086493;28;20027;-58
2023/08/12 03:05:10;;;;;;;1999.90;999.90;;;;;;;22.13;100.00;100217.47;5073918;28;20020;-58
2023/08/12 03:07:36;;;;;;;1999.90;999.90;;;;;;;22.14;100.00;100224.63;5089190;28;20048;-58
2023/08/12 03:10:01;;;;;;;1999.90;999.90;;;;;;;22.15;100.00;100226.34;5088513;28;20487;-58
2023/08/12 03:12:26;;;;;;;1999.90;999.90;;;;;;;22.22;100.00;100232.16;5071732;28;20028;-58
2023/08/12 03:14:52;;;;;;;1999.90;999.90;;;;;;;22.24;100.00;100228.34;5068125;28;20040;-58
2023/08/12 03:17:17;;;;;;;1999.90;999.90;;;;;;;22.25;100.00;100238.22;5068127;28;20485;-58
2023/08/12 03:19:43;;;;;;;1999.90;999.90;;;;;;;22.25;100.00;100237.34;5080549;28;20057;-58
2023/08/12 03:22:08;;;;;;;1999.90;999.90;;;;;;;22.26;100.00;100218.25;5069138;28;20548;-59
2023/08/12 03:24:34;;;;;;;1999.90;999.90;;;;;;;22.30;100.00;100202.63;5081678;28;20028;-58
2023/08/12 03:26:59;;;;;;;1999.90;999.90;;;;;;;22.26;100.00;100207.41;5074540;28;20508;-58
2023/08/12 03:29:25;;;;;;;1999.90;999.90;;;;;;;22.25;100.00;100205.69;5068752;28;20370;-58
2023/08/12 03:31:50;;;;;;;1999.90;999.90;;;;;;;22.28;100.00;100199.16;5068648;28;20036;-58
2023/08/12 03:34:16;;;;;;;1999.90;999.90;;;;;;;22.34;100.00;100191.41;5071212;28;20066;-58
2023/08/12 03:36:41;;;;;;;1999.90;999.90;;;;;;;22.35;100.00;100190.44;5050401;28;20063;-58
2023/08/12 03:39:07;;;;;;;1999.90;999.90;;;;;;;22.33;100.00;100197.81;5068242;28;20031;-58
2023/08/12 03:41:32;;;;;;;1999.90;999.90;;;;;;;22.29;100.00;100192.78;5071212;28;20028;-58
2023/08/12 03:43:58;;;;;;;1999.90;999.90;;;;;;;22.24;100.00;100206.66;5068689;28;20021;-58
2023/08/12 03:46:23;;;;;;;1999.90;999.90;;;;;;;22.15;100.00;100205.53;5087928;28;20027;-58
2023/08/12 03:48:49;;;;;;;1999.90;999.90;;;;;;;22.10;100.00;100217.72;5086222;28;20024;-59
2023/08/12 03:51:14;;;;;;;1999.90;999.90;;;;;;;22.09;100.00;100216.84;5069839;28;20032;-58
2023/08/12 03:53:39;;;;;;;1999.90;999.90;;;;;;;22.09;100.00;100221.41;5073399;28;20118;-58
2023/08/12 03:56:05;;;;;;;1999.90;999.90;;;;;;;22.09;100.00;100205.16;5077741;28;20118;-58
2023/08/12 03:58:30;;;;;;;1999.90;999.90;;;;;;;22.10;100.00;100196.03;5088581;28;20395;-59
2023/08/12 04:00:56;;;;;;;1999.90;999.90;;;;;;;22.11;100.00;100192.31;5084369;28;20032;-58
2023/08/12 04:03:21;;;;;;;1999.90;999.90;;;;;;;22.13;100.00;100206.63;5068335;28;20074;-59
2023/08/12 04:05:51;;;;;;;1999.90;999.90;;;;;;;22.13;100.00;100214.75;5086065;28;20805;-58
2023/08/12 04:08:17;;;;;;;1999.90;999.90;;;;;;;22.13;100.00;100222.88;5071700;28;20587;-58
2023/08/12 04:10:47;;;;;;;1999.90;999.90;;;;;;;22.15;100.00;100227.22;5082588;28;20052;-58
2023/08/12 04:13:13;;;;;;;1999.90;999.90;;;;;;;22.14;100.00;100222.75;5086866;28;20016;-58
2023/08/12 04:15:39;;;;;;;1999.90;999.90;;;;;;;22.15;100.00;100210.97;5081123;28;20057;-59
2023/08/12 04:18:05;;;;;;;1999.90;999.90;;;;;;;22.15;100.00;100193.84;5087410;28;20774;-58
2023/08/12 04:20:30;;;;;;;1999.90;999.90;;;;;;;22.18;100.00;100183.63;5084891;28;20026;-59
2023/08/12 04:22:56;;;;;;;1999.90;999.90;;;;;;;22.21;100.00;100189.78;5084291;28;20032;-58
2023/08/12 04:25:22;;;;;;;1999.90;999.90;;;;;;;22.16;100.00;100195.53;5087758;28;20379;-58
2023/08/12 04:27:49;;;;;;;1999.90;999.90;;;;;;;22.11;100.00;100193.19;5087931;28;20019;-58
2023/08/12 04:30:15;;;;;;;1999.90;999.90;;;;;;;22.08;100.00;100193.44;5082746;28;20032;-59
2023/08/12 04:32:41;;;;;;;1999.90;999.90;;;;;;;22.05;100.00;100200.94;5066504;28;20024;-58
2023/08/12 04:35:07;;;;;;;1999.90;999.90;;;;;;;22.02;100.00;100199.34;5064719;28;20040;-59
2023/08/12 04:37:32;;;;;;;1999.90;999.90;;;;;;;22.03;100.00;100195.63;5068054;28;20032;-58
2023/08/12 04:39:58;;;;;;;1999.90;999.90;;;;;;;22.05;100.00;100193.69;5064783;28;20529;-58
2023/08/12 04:42:23;;;;;;;1999.90;999.90;;;;;;;22.07;100.00;100191.69;5068422;28;20032;-58
2023/08/12 04:44:49;;;;;;;1999.90;999.90;;;;;;;22.09;100.00;100191.59;5066288;28;20032;-58
2023/08/12 04:47:15;;;;;;;1999.90;999.90;;;;;;;22.11;100.00;100184.19;5065868;28;20504;-58
2023/08/12 04:49:40;;;;;;;1999.90;999.90;;;;;;;22.14;100.00;100178.56;5067601;28;20051;-58
2023/08/12 04:52:06;;;;;;;1999.90;999.90;;;;;;;22.14;100.00;100174.00;5082629;28;20081;-58
2023/08/12 04:54:32;;;;;;;1999.90;999.90;;;;;;;22.13;100.00;100180.41;5091208;28;20119;-58
2023/08/12 04:56:59;;;;;;;1999.90;999.90;;;;;;;22.21;100.00;100187.09;5087183;28;20036;-58
2023/08/12 04:59:24;;;;;;;1999.90;999.90;;;;;;;22.23;100.00;100188.69;5071146;28;20024;-59
2023/08/12 05:01:50;;;;;;;1999.90;999.90;;;;;;;22.26;100.00;100184.88;5073583;28;20028;-58
2023/08/12 05:04:15;;;;;;;1999.90;999.90;;;;;;;22.28;100.00;100177.47;5087906;28;20457;-58
2023/08/12 05:06:41;;;;;;;1999.90;999.90;;;;;;;22.29;100.00;100179.22;5090996;28;20485;-58
2023/08/12 05:09:06;;;;;;;1999.90;999.90;;;;;;;22.29;100.00;100180.06;5072202;28;20048;-59
2023/08/12 05:11:31;;;;;;;1999.90;999.90;;;;;;;22.31;100.00;100183.53;5060133;28;20038;-59
2023/08/12 05:13:57;;;;;;;1999.90;999.90;;;;;;;22.34;100.00;100177.84;5070286;28;20111;-59
2023/08/12 05:16:22;;;;;;;1999.90;999.90;;;;;;;22.40;100.00;100174.69;5070258;28;20078;-58
2023/08/12 05:18:48;;;;;;;1999.90;999.90;;;;;;;22.43;100.00;100169.00;5070981;28;20035;-58
2023/08/12 05:21:13;;;;;;;1999.90;999.90;;;;;;;22.50;100.00;100181.13;5068064;28;20123;-58
2023/08/12 05:23:38;;;;;;;1999.90;999.90;;;;;;;22.52;100.00;100179.13;5070981;28;20028;-58
2023/08/12 05:26:04;;;;;;;1999.90;999.90;;;;;;;22.56;100.00;100177.94;5070832;28;20113;-58
2023/08/12 05:28:29;;;;;;;1999.90;999.90;;;;;;;22.61;100.00;100183.88;5071287;28;20032;-58
2023/08/12 05:30:55;;;;;;;1999.90;999.90;;;;;;;22.58;100.00;100180.53;5056621;28;20137;-59
2023/08/12 05:33:21;;;;;;;1999.90;999.90;;;;;;;22.47;100.00;100188.63;5051091;28;20037;-59
2023/08/12 05:35:50;;;;;;;1999.90;999.90;;;;;;;22.43;100.00;100185.28;5053725;28;20021;-59
2023/08/12 05:38:16;;;;;;;1999.90;999.90;;;;;;;22.50;100.00;100183.81;5050924;28;20093;-58
2023/08/12 05:40:42;;;;;;;1999.90;999.90;;;;;;;22.41;100.00;100157.41;5055075;28;20097;-59
2023/08/12 05:43:08;;;;;;;1999.90;999.90;;;;;;;22.60;100.00;100184.81;5068018;28;20028;-59
2023/08/12 05:45:33;;;;;;;1999.90;999.90;;;;;;;22.67;100.00;100194.22;5064301;28;20039;-59
2023/08/12 05:47:59;;;;;;;1999.90;999.90;;;;;;;22.84;100.00;100188.31;5070879;28;20032;-59
2023/08/12 05:50:24;;;;;;;1999.90;999.90;;;;;;;23.02;100.00;100194.97;5062220;28;20025;-59
2023/08/12 05:52:50;;;;;;;1999.90;999.90;;;;;;;23.37;100.00;100187.56;5050519;28;20483;-59
2023/08/12 05:55:15;;;;;;;1999.90;999.90;;;;;;;23.61;100.00;100183.81;5060543;28;20028;-59
2023/08/12 05:57:40;;;;;;;1999.90;999.90;;;;;;;23.63;100.00;100190.81;5052594;28;20143;-59
2023/08/12 06:00:06;;;;;;;1999.90;999.90;;;;;;;23.61;100.00;100195.53;5049841;28;20037;-60
2023/08/12 06:02:32;;;;;;;1999.90;999.90;;;;;;;23.64;100.00;100189.81;5066959;28;20488;-59
2023/08/12 06:04:57;;;;;;;1999.90;999.90;;;;;;;23.68;100.00;100194.03;5069466;28;20056;-59
2023/08/12 06:07:23;;;;;;;1999.90;999.90;;;;;;;23.73;100.00;100196.34;5068646;28;20044;-59
2023/08/12 06:09:50;;;;;;;1999.90;999.90;;;;;;;23.79;100.00;100193.13;5089068;28;20028;-59
2023/08/12 06:12:16;;;;;;;1999.90;999.90;;;;;;;23.90;100.00;100195.81;5088340;28;20024;-59
2023/08/12 06:14:41;;;;;;;1999.90;999.90;;;;;;;23.98;100.00;100198.75;5090116;28;20573;-59
2023/08/12 06:17:07;;;;;;;1999.90;999.90;;;;;;;24.06;100.00;100180.81;5082295;28;20016;-59
2023/08/12 06:19:33;;;;;;;1999.90;999.90;;;;;;;24.24;100.00;100179.25;5090442;28;20471;-59
2023/08/12 06:21:58;;;;;;;1999.90;999.90;;;;;;;24.41;100.00;100175.94;5074521;28;20032;-59
2023/08/12 06:24:23;;;;;;;1999.90;999.90;;;;;;;24.65;100.00;100181.06;5086553;28;20492;-59
2023/08/12 06:26:49;;;;;;;1999.90;999.90;;;;;;;24.88;98.18;100185.38;5078324;28;20377;-59
2023/08/12 06:29:14;;;;;;;1999.90;999.90;;;;;;;24.98;95.81;100183.56;5069774;28;20024;-59
2023/08/12 06:31:40;;;;;;;1999.90;999.90;;;;;;;25.09;95.27;100191.63;5072091;28;20099;-59
2023/08/12 06:34:05;;;;;;;1999.90;999.90;;;;;;;25.17;95.29;100197.22;5069628;28;20396;-60
2023/08/12 06:36:30;;;;;;;1999.90;999.90;;;;;;;25.32;95.96;100195.03;5069595;28;20058;-59
2023/08/12 06:38:56;;;;;;;1999.90;999.90;;;;;;;25.56;93.57;100182.78;5074586;28;20829;-59
2023/08/12 06:41:21;;;;;;;1999.90;999.90;;;;;;;25.72;91.98;100183.09;5069377;28;20028;-59
2023/08/12 06:43:47;;;;;;;1999.90;999.90;;;;;;;25.83;91.90;100188.38;5069817;28;20020;-59
2023/08/12 06:46:12;;;;;;;1999.90;999.90;;;;;;;26.01;90.78;100187.69;5071829;28;20031;-59
2023/08/12 06:48:37;;;;;;;1999.90;999.90;;;;;;;26.21;89.25;100181.28;5069509;28;20039;-60
2023/08/12 06:51:10;;;;;;;1999.90;999.90;;;;;;;26.49;87.11;100180.38;5071379;28;20107;-60
2023/08/12 06:53:36;;;;;;;1999.90;999.90;;;;;;;26.56;86.00;100190.53;5069303;28;20032;-60
2023/08/12 06:56:01;;;;;;;1999.90;999.90;;;;;;;26.65;86.11;100188.78;5086021;28;20495;-60
2023/08/12 06:58:26;;;;;;;1999.90;999.90;;;;;;;26.68;85.78;100188.53;5077069;28;20028;-59
2023/08/12 07:00:53;;;;;;;1999.90;999.90;;;;;;;26.68;85.99;100188.53;5082773;28;20043;-59
2023/08/12 07:03:19;;;;;;;1999.90;999.90;;;;;;;26.66;85.97;100182.34;5068021;28;20476;-60
2023/08/12 07:05:44;;;;;;;1999.90;999.90;;;;;;;26.57;86.26;100178.59;5086681;28;20034;-60
2023/08/12 07:08:10;;;;;;;1999.90;999.90;;;;;;;26.41;86.05;100185.69;5077835;28;20048;-59
2023/08/12 07:10:38;;;;;;;1999.90;999.90;;;;;;;26.33;86.24;100185.53;5088903;28;20035;-60
2023/08/12 07:13:04;;;;;;;1999.90;999.90;;;;;;;26.48;86.74;100186.81;5082979;28;20104;-60
2023/08/12 07:15:29;;;;;;;1999.90;999.90;;;;;;;26.80;86.46;100187.34;5082358;28;20159;-60
2023/08/12 07:17:55;;;;;;;1999.90;999.90;;;;;;;27.19;84.71;100188.91;5089210;28;20043;-60
2023/08/12 07:20:21;;;;;;;1999.90;999.90;;;;;;;27.32;82.88;100205.84;5080898;28;20830;-60
2023/08/12 07:22:46;;;;;;;1999.90;999.90;;;;;;;27.37;82.42;100214.44;5068742;28;20052;-60
2023/08/12 07:25:12;;;;;;;1999.90;999.90;;;;;;;27.42;81.72;100212.13;5079861;28;20027;-60
2023/08/12 07:27:37;;;;;;;1999.90;999.90;;;;;;;27.45;82.60;100202.75;5089313;28;20051;-60
2023/08/12 07:30:03;;;;;;;1999.90;999.90;;;;;;;27.82;82.86;100198.06;5077155;28;20082;-60
2023/08/12 07:32:28;;;;;;;1999.90;999.90;;;;;;;28.21;79.94;100200.38;5070954;28;20036;-60
2023/08/12 07:34:53;;;;;;;1999.90;999.90;;;;;;;28.34;77.80;100197.22;5083666;28;20024;-60
2023/08/12 07:37:19;;;;;;;1999.90;999.90;;;;;;;28.48;76.31;100201.28;5084332;28;20043;-60
2023/08/12 07:39:45;;;;;;;1999.90;999.90;;;;;;;28.48;75.21;100192.03;5070670;28;20108;-61
2023/08/12 07:42:10;;;;;;;1999.90;999.90;;;;;;;28.43;77.78;100194.38;5070280;28;20038;-60
2023/08/12 07:44:36;;;;;;;1999.90;999.90;;;;;;;28.36;77.25;100197.94;5078930;28;20032;-60
2023/08/12 07:47:01;;;;;;;1999.90;999.90;;;;;;;28.19;77.59;100180.50;5066899;28;20383;-60
2023/08/12 07:49:27;;;;;;;1999.90;999.90;;;;;;;28.02;76.78;100195.03;5069730;28;20488;-60
2023/08/12 07:51:52;;;;;;;1999.90;999.90;;;;;;;28.09;78.28;100195.28;5066581;28;20021;-60
2023/08/12 07:54:17;;;;;;;1999.90;999.90;;;;;;;28.08;77.80;100194.44;5070040;28;20028;-60
2023/08/12 07:56:43;;;;;;;1999.90;999.90;;;;;;;28.04;77.93;100193.03;5084743;28;20736;-60
2023/08/12 07:59:08;;;;;;;1999.90;999.90;;;;;;;28.12;77.20;100176.69;5067930;28;20518;-60
2023/08/12 08:01:34;;;;;;;1999.90;999.90;;;;;;;28.27;76.76;100169.63;5076758;28;20050;-60
2023/08/12 08:03:59;;;;;;;1999.90;999.90;;;;;;;28.56;76.03;100176.72;5087626;28;20030;-60
2023/08/12 08:06:24;;;;;;;1999.90;999.90;;;;;;;28.68;75.74;100170.84;5086315;28;20105;-60
2023/08/12 08:08:50;;;;;;;1999.90;999.90;;;;;;;29.10;71.70;100173.66;5067705;28;20045;-60
2023/08/12 08:11:15;;;;;;;1550.88;754.30;;;;;;;29.73;69.97;100169.47;5060705;28;20098;-60
2023/08/12 08:13:41;;;;;;;1999.90;999.90;;;;;;;29.86;68.24;100158.88;5063134;28;20025;-60
2023/08/12 08:16:06;;;;;;;1999.90;999.90;;;;;;;29.96;67.86;100158.72;5053301;28;20041;-60
2023/08/12 08:18:31;;;;;;;1999.90;999.90;;;;;;;29.70;67.35;100158.00;5067695;28;20349;-60
2023/08/12 08:20:57;;;;;;;1999.90;999.90;;;;;;;29.90;68.55;100159.41;5062494;28;20016;-60
2023/08/12 08:23:22;;;;;;;1999.90;999.90;;;;;;;30.58;66.22;100166.28;5047381;28;20491;-60
2023/08/12 08:25:48;;;;;;;1999.90;999.90;;;;;;;31.32;62.44;100169.56;5068992;28;20040;-60
2023/08/12 08:28:13;;;;;;;1999.90;999.90;;;;;;;31.57;60.33;100176.69;5056139;28;20037;-60
2023/08/12 08:30:39;;;;;;;1999.90;999.90;;;;;;;32.04;59.16;100171.09;5053481;28;20032;-60
2023/08/12 08:33:05;;;;;;;1999.90;999.90;;;;;;;32.61;59.05;100183.38;5070475;28;20520;-61
2023/08/12 08:35:30;;;;;;;1999.90;999.90;;;;;;;33.09;54.89;100171.00;5064257;28;20060;-63
2023/08/12 08:37:55;;;;;;;1999.90;999.90;;;;;;;33.63;52.08;100174.28;5051480;28;20033;-66
2023/08/12 08:40:21;;;;;;;1999.90;999.90;;;;;;;34.06;51.85;100162.28;5053521;28;20037;-65
2023/08/12 08:42:52;;;;;;;1999.90;999.90;;;;;;;33.92;51.13;100171.50;5050324;28;20082;-66
2023/08/12 08:45:18;;;;;;;1999.90;999.90;;;;;;;33.21;51.79;100158.44;5050681;28;20036;-65
2023/08/12 08:47:44;;;;;;;1999.90;999.90;;;;;;;32.47;54.02;100162.13;5055850;28;20024;-65
2023/08/12 08:50:10;;;;;;;1999.90;999.90;;;;;;;31.72;57.33;100185.00;5057315;28;20036;-65
2023/08/12 08:52:37;;;;;;;1999.90;999.90;;;;;;;31.12;58.66;100189.38;5049793;28;20078;-66
2023/08/12 08:55:04;;;;;;;1999.90;999.90;;;;;;;30.78;60.30;100196.00;5060093;28;20354;-65
2023/08/12 08:57:30;;;;;;;1999.90;999.90;;;;;;;30.44;61.88;100198.06;5065373;28;20025;-64
2023/08/12 08:59:55;;;;;;;1999.90;999.90;;;;;;;30.11;62.77;100195.44;5053132;28;20078;-66
2023/08/12 09:02:21;;;;;;;1999.90;999.90;;;;;;;29.87;62.50;100203.63;5060225;28;20036;-65
2023/08/12 09:04:47;;;;;;;1999.90;999.90;;;;;;;29.89;64.26;100196.06;5069881;28;20143;-65
2023/08/12 09:07:16;;;;;;;1999.90;999.90;;;;;;;30.67;60.83;100189.97;5063006;28;20345;-65
2023/08/12 09:09:46;;;;;;;1999.90;999.90;;;;;;;31.54;58.98;100192.69;5052534;28;20044;-65
2023/08/12 09:12:13;;;;;;;1999.90;999.90;;;;;;;31.69;57.10;100196.38;5051148;28;20037;-65
2023/08/12 09:14:39;;;;;;;1999.90;999.90;;;;;;;31.51;57.53;100184.78;5051302;28;20394;-64
2023/08/12 09:17:04;;;;;;;1999.90;999.90;;;;;;;31.27;58.23;100182.13;5053388;28;20090;-65
2023/08/12 09:19:30;;;;;;;1999.90;999.90;;;;;;;31.25;59.64;100175.94;5051009;28;20036;-64
2023/08/12 09:21:55;;;;;;;1999.90;999.90;;;;;;;31.75;59.52;100176.38;5050313;28;20676;-65
2023/08/12 09:24:27;;;;;;;1999.90;999.90;;;;;;;32.46;56.36;100176.09;5054024;28;20101;-64
2023/08/12 09:26:56;;;;;;;1999.90;999.90;;;;;;;33.06;54.11;100166.72;5053972;28;20036;-65
2023/08/12 09:29:35;;;;;;;1999.90;999.90;;;;;;;33.74;51.47;100171.06;5050429;28;20029;-65
2023/08/12 09:32:13;;;;;;;459.73;194.45;;;;;;;33.94;51.88;100175.75;5049936;28;20028;-64
2023/08/12 09:34:51;;;;;;;9.07;4.90;;;;;;;33.43;50.96;100178.72;5052628;28;20392;-65
2023/08/12 09:37:17;;;;;;;716.97;674.78;;;;;;;32.83;53.80;100187.97;5069296;28;20089;-65
2023/08/12 09:39:43;;;;;;;1999.90;999.90;;;;;;;32.67;51.27;100187.28;5064607;28;20028;-64
2023/08/12 09:42:09;;;;;;;1999.90;999.90;;;;;;;32.52;54.82;100200.16;5067903;28;20044;-64
2023/08/12 09:44:36;;;;;;;1999.90;999.90;;;;;;;32.48;56.67;100180.38;5068435;28;20032;-66
2023/08/12 09:47:03;;;;;;;1029.47;505.52;;;;;;;33.04;55.80;100178.97;5069330;28;20016;-66
2023/08/12 09:49:28;;;;;;;1999.90;999.90;;;;;;;33.65;53.74;100166.69;5063098;28;20483;-66
2023/08/12 09:51:54;;;;;;;1999.90;999.90;;;;;;;34.28;52.70;100159.31;5049433;28;20108;-65
2023/08/12 09:54:20;;;;;;;1999.90;999.90;;;;;;;34.47;50.50;100157.81;5051519;28;20116;-67
2023/08/12 09:56:48;;;;;;;1999.90;999.90;;;;;;;34.29;49.10;100171.22;5059307;28;20076;-65
2023/08/12 09:59:20;;;;;;;1999.90;999.90;;;;;;;34.36;48.29;100177.69;5069727;28;20029;-67
2023/08/12 10:01:45;;;;;;;1999.90;999.90;;;;;;;34.70;49.22;100174.19;5049449;28;20120;-67
2023/08/12 10:04:13;;;;;;;1999.90;999.90;;;;;;;35.07;47.34;100165.53;5051957;28;20384;-67
2023/08/12 10:06:39;;;;;;;1999.90;999.90;;;;;;;35.13;47.21;100160.03;5067254;28;20016;-67
2023/08/12 10:09:08;;;;;;;1999.90;999.90;;;;;;;35.17;47.90;100177.09;5079645;28;20663;-66
2023/08/12 10:11:35;;;;;;;1999.90;999.90;;;;;;;35.21;49.04;100186.69;5070569;28;20025;-66
2023/08/12 10:14:03;;;;;;;1999.90;999.90;;;;;;;34.95;47.62;100198.44;5069535;28;20032;-65
2023/08/12 10:16:29;;;;;;;1999.90;999.90;;;;;;;34.01;49.84;100200.69;5071068;28;20103;-65
2023/08/12 10:18:57;;;;;;;1999.90;999.90;;;;;;;33.10;51.23;100223.19;5079774;28;20059;-66
2023/08/12 10:21:22;;;;;;;1999.90;999.90;;;;;;;32.03;56.38;100243.69;5071218;28;20059;-65
2023/08/12 10:23:49;;;;;;;1999.90;999.90;;;;;;;31.14;57.29;100250.56;5075921;28;20024;-65
2023/08/12 10:26:17;;;;;;;1999.90;999.90;;;;;;;30.35;60.96;100248.50;5069461;28;20027;-65
2023/08/12 10:28:42;;;;;;;1999.90;999.90;;;;;;;29.91;66.06;100236.03;5070936;28;20044;-65
2023/08/12 10:31:08;;;;;;;1999.90;999.90;;;;;;;29.55;74.27;100237.25;5069416;28;20036;-64
2023/08/12 10:33:40;;;;;;;1999.90;999.90;;;;;;;29.18;78.06;100243.06;5073094;28;20028;-64
2023/08/12 10:36:07;;;;;;;1999.90;999.90;;;;;;;28.72;79.93;100209.69;5082988;28;20036;-64
2023/08/12 10:38:33;;;;;;;1999.90;999.90;;;;;;;28.65;81.96;100203.16;5088518;28;20317;-64